Hagerstown Regional Richard A Henson Field Hagerstown US
ICAO: KHGR
IATA: HGR
Category: Medium
Scheduled Services: No

Elevation: 703 ft
TransAlt. 18000 ft.

Airport Communications:
ASOS:126.375
WASHINGTON CNTR:134.15
CTAF:120.3
GND:121.9
AR OPS:32.3
LEESBURG RDO:109.8
TWR:120.3
UNICOM:122.95

KHGR Zoom In..

If Map Doesn't Load, Click Here

Runways:

(A) RW 02 length 3165 ft width 100 ft
---- / hdg 26

(B) RW 09 length 7000 ft width 150 ft
ILS 111.90 / hdg 92

(C) RW 20 length 3165 ft width 100 ft
---- / hdg 206

(D) RW 27 length 7000 ft width 150 ft
ILS 111.90 / hdg 272

Location; KHGR
Day. 21 / Time. 14.53 Zulu
* Altimeter: 30.16
* Temperature: 23° c. 73.4°f.
* Wind from: 150° Speed 12 kn.
Dewpoint: 18° c.
Visibility: 10 Statute Miles.
Clouds: Overcast 1300 ft.

KHGR 211453Z 15012KT 10SM OVC013 23/18 A3016 RMK AO2 SLP218 T02280183 58010


Wind From 150°
Speed 12 kn.

 
 
jpsmedia.com for Web Design worldairports.se 2018   terms of use